AZU4560 SBKP-SBNT
Flight info
| Callsign | AZU4560 |
|---|---|
| Flight time | N/A |
| Altitude | 35000 |
| Route | KONVI UZ23 NIGMA/N0406F230 Z47 UTLEV/N0466F330 UZ23 ILPIR UZ72 UDIDU/N0462F350 UZ72 ESMIG DCT TOGUN |
| Aircraft | A21N/M-SDE2E3FGHIRWXY/LB1 |
Departure
| Time | 2026-04-28 19:13 |
|---|---|
| Airport | Viracopos International Airport (SBKP) |
Arrival
| Time | N/A |
|---|---|
| Airport | Natal Air Force Base (SBNT) |
| Time | Latitude | Longitude | Altitude | Speed | Heading |
|---|---|---|---|---|---|
| 2026-04-28 18:34 | -23.00399 | -47.14854 | 2152 ft | 0 kts | 218° |
| 2026-04-28 18:58 | -23.00398 | -47.14854 | 2152 ft | 1 kts | 218° |
| 2026-04-28 18:59 | -23.00384 | -47.14841 | 2152 ft | 3 kts | 237° |
| 2026-04-28 18:59 | -23.00377 | -47.14822 | 2155 ft | 3 kts | 273° |
| 2026-04-28 18:59 | -23.00381 | -47.14805 | 2154 ft | 1 kts | 308° |
| 2026-04-28 18:59 | -23.00382 | -47.14804 | 2154 ft | 1 kts | 308° |
| 2026-04-28 19:06 | -23.00382 | -47.14805 | 2160 ft | 0 kts | 308° |
| 2026-04-28 19:07 | -23.00376 | -47.14813 | 2158 ft | 4 kts | 308° |
| 2026-04-28 19:07 | -23.00317 | -47.14894 | 2154 ft | 18 kts | 308° |
| 2026-04-28 19:07 | -23.00246 | -47.14993 | 2157 ft | 12 kts | 308° |
| 2026-04-28 19:07 | -23.00181 | -47.15002 | 2160 ft | 11 kts | 34° |
| 2026-04-28 19:08 | -23.00119 | -47.14951 | 2159 ft | 12 kts | 38° |
| 2026-04-28 19:08 | -23.00030 | -47.14874 | 2156 ft | 23 kts | 42° |
| 2026-04-28 19:08 | -22.99975 | -47.14803 | 2160 ft | 8 kts | 38° |
| 2026-04-28 19:08 | -22.99933 | -47.14766 | 2157 ft | 0 kts | 42° |
| 2026-04-28 19:09 | -22.99932 | -47.14765 | 2154 ft | 1 kts | 42° |
| 2026-04-28 19:09 | -22.99931 | -47.14764 | 2154 ft | 0 kts | 42° |
| 2026-04-28 19:11 | -22.99927 | -47.14761 | 2155 ft | 2 kts | 42° |
| 2026-04-28 19:11 | -22.99905 | -47.14732 | 2154 ft | 13 kts | 51° |
| 2026-04-28 19:12 | -22.99886 | -47.14647 | 2158 ft | 11 kts | 108° |
| 2026-04-28 19:12 | -22.99902 | -47.14622 | 2153 ft | 13 kts | 130° |
| 2026-04-28 19:12 | -23.00125 | -47.14321 | 2153 ft | 86 kts | 127° |
| 2026-04-28 19:12 | -23.00640 | -47.13589 | 2156 ft | 158 kts | 127° |
| 2026-04-28 19:13 | -23.01345 | -47.12558 | 2676 ft | 170 kts | 128° |
| 2026-04-28 19:13 | -23.01770 | -47.11844 | 3165 ft | 172 kts | 114° |
| 2026-04-28 19:13 | -23.01841 | -47.10577 | 3918 ft | 172 kts | 81° |
| 2026-04-28 19:13 | -23.01529 | -47.08712 | 4422 ft | 205 kts | 78° |
| 2026-04-28 19:14 | -23.01250 | -47.07042 | 4701 ft | 245 kts | 80° |
| 2026-04-28 19:14 | -23.01066 | -47.05783 | 5023 ft | 263 kts | 80° |
| 2026-04-28 19:14 | -23.00799 | -47.03766 | 5835 ft | 275 kts | 80° |
| 2026-04-28 19:14 | -23.00382 | -47.01735 | 6776 ft | 277 kts | 62° |
| 2026-04-28 19:15 | -22.99178 | -47.00144 | 7480 ft | 276 kts | 35° |
| 2026-04-28 19:15 | -22.97586 | -46.98962 | 7867 ft | 278 kts | 30° |
| 2026-04-28 19:15 | -22.95956 | -46.97825 | 7976 ft | 279 kts | 31° |
| 2026-04-28 19:15 | -22.94884 | -46.97048 | 7982 ft | 280 kts | 32° |
| 2026-04-28 19:16 | -22.92735 | -46.95413 | 8029 ft | 282 kts | 33° |
| 2026-04-28 19:16 | -22.91169 | -46.94175 | 8028 ft | 282 kts | 34° |
| 2026-04-28 19:16 | -22.89630 | -46.92847 | 8074 ft | 283 kts | 37° |
| 2026-04-28 19:16 | -22.88105 | -46.91459 | 8633 ft | 288 kts | 38° |
| 2026-04-28 19:17 | -22.86573 | -46.90044 | 9752 ft | 288 kts | 37° |
| 2026-04-28 19:17 | -22.85041 | -46.88624 | 10730 ft | 295 kts | 37° |
| 2026-04-28 19:17 | -22.83414 | -46.87121 | 11200 ft | 318 kts | 38° |
| 2026-04-28 19:17 | -22.81688 | -46.85526 | 11857 ft | 331 kts | 38° |
| 2026-04-28 19:18 | -22.79919 | -46.83888 | 12543 ft | 337 kts | 38° |
| 2026-04-28 19:18 | -22.78124 | -46.82222 | 12914 ft | 341 kts | 39° |
| 2026-04-28 19:18 | -22.76414 | -46.80479 | 13011 ft | 343 kts | 42° |
| 2026-04-28 19:18 | -22.74716 | -46.78636 | 13335 ft | 349 kts | 43° |
| 2026-04-28 19:19 | -22.72997 | -46.76746 | 14201 ft | 353 kts | 43° |
| 2026-04-28 19:19 | -22.71266 | -46.74843 | 15093 ft | 356 kts | 42° |
| 2026-04-28 19:19 | -22.69590 | -46.72844 | 15916 ft | 363 kts | 50° |
| 2026-04-28 19:19 | -22.68400 | -46.70394 | 16700 ft | 375 kts | 70° |
| 2026-04-28 19:20 | -22.68015 | -46.67568 | 17481 ft | 384 kts | 85° |
| 2026-04-28 19:20 | -22.68007 | -46.64649 | 18154 ft | 392 kts | 88° |
| 2026-04-28 19:20 | -22.68063 | -46.61663 | 18747 ft | 398 kts | 89° |
| 2026-04-28 19:20 | -22.68117 | -46.58686 | 19349 ft | 402 kts | 88° |
| 2026-04-28 19:21 | -22.68162 | -46.55643 | 19945 ft | 407 kts | 88° |
| 2026-04-28 19:21 | -22.68198 | -46.52558 | 20553 ft | 412 kts | 88° |
| 2026-04-28 19:21 | -22.68229 | -46.49439 | 21166 ft | 416 kts | 88° |
| 2026-04-28 19:21 | -22.68258 | -46.46289 | 21785 ft | 421 kts | 88° |
| 2026-04-28 19:22 | -22.68285 | -46.43100 | 22430 ft | 425 kts | 88° |
| 2026-04-28 19:22 | -22.68302 | -46.40975 | 22817 ft | 429 kts | 88° |
| 2026-04-28 19:22 | -22.68336 | -46.36625 | 23633 ft | 435 kts | 88° |
| 2026-04-28 19:22 | -22.68361 | -46.33333 | 24137 ft | 439 kts | 88° |
| 2026-04-28 19:23 | -22.68385 | -46.30000 | 24639 ft | 443 kts | 88° |
| 2026-04-28 19:23 | -22.68409 | -46.26651 | 25134 ft | 447 kts | 88° |
| 2026-04-28 19:23 | -22.68261 | -46.23285 | 25599 ft | 448 kts | 79° |
| 2026-04-28 19:23 | -22.67584 | -46.20002 | 26032 ft | 446 kts | 67° |
| 2026-04-28 19:24 | -22.66308 | -46.16967 | 26489 ft | 442 kts | 54° |
| 2026-04-28 19:24 | -22.64499 | -46.14303 | 26925 ft | 438 kts | 42° |
| 2026-04-28 19:24 | -22.62336 | -46.12047 | 27345 ft | 436 kts | 36° |
| 2026-04-28 19:24 | -22.60027 | -46.09908 | 27803 ft | 436 kts | 34° |
| 2026-04-28 19:25 | -22.57659 | -46.07833 | 28233 ft | 438 kts | 33° |
| 2026-04-28 19:25 | -22.55262 | -46.05779 | 28644 ft | 441 kts | 33° |
| 2026-04-28 19:25 | -22.52851 | -46.03715 | 29041 ft | 443 kts | 33° |
| 2026-04-28 19:25 | -22.50432 | -46.01627 | 29430 ft | 446 kts | 33° |
| 2026-04-28 19:26 | -22.48004 | -45.99518 | 29777 ft | 449 kts | 33° |
| 2026-04-28 19:26 | -22.45562 | -45.97381 | 30146 ft | 452 kts | 33° |
| 2026-04-28 19:26 | -22.43142 | -45.95254 | 30464 ft | 454 kts | 33° |
| 2026-04-28 19:26 | -22.40688 | -45.93093 | 30759 ft | 457 kts | 34° |
| 2026-04-28 19:27 | -22.38209 | -45.90909 | 31026 ft | 460 kts | 34° |
| 2026-04-28 19:27 | -22.35716 | -45.88712 | 31249 ft | 464 kts | 34° |
| 2026-04-28 19:27 | -22.33221 | -45.86514 | 31611 ft | 464 kts | 34° |
| 2026-04-28 19:27 | -22.30713 | -45.84306 | 31990 ft | 464 kts | 34° |
| 2026-04-28 19:28 | -22.28200 | -45.82100 | 32360 ft | 464 kts | 34° |
| 2026-04-28 19:28 | -22.25682 | -45.79906 | 32729 ft | 465 kts | 33° |
| 2026-04-28 19:28 | -22.23156 | -45.77720 | 33096 ft | 465 kts | 33° |
| 2026-04-28 19:28 | -22.20632 | -45.75540 | 33485 ft | 465 kts | 33° |
| 2026-04-28 19:29 | -22.18101 | -45.73359 | 33835 ft | 466 kts | 33° |
| 2026-04-28 19:29 | -22.16422 | -45.71911 | 34073 ft | 466 kts | 33° |
| 2026-04-28 19:29 | -22.13065 | -45.69017 | 34486 ft | 466 kts | 34° |
| 2026-04-28 19:29 | -22.10535 | -45.66835 | 34816 ft | 466 kts | 33° |
| 2026-04-28 19:30 | -22.08001 | -45.64651 | 35001 ft | 466 kts | 34° |
| 2026-04-28 19:30 | -22.05470 | -45.62469 | 35015 ft | 465 kts | 33° |
| 2026-04-28 19:30 | -22.00400 | -45.58103 | 35022 ft | 466 kts | 34° |
| 2026-04-28 19:31 | -21.95319 | -45.53730 | 35021 ft | 466 kts | 34° |
| 2026-04-28 19:31 | -21.90247 | -45.49370 | 35021 ft | 466 kts | 34° |
| 2026-04-28 19:32 | -21.85201 | -45.45036 | 35022 ft | 466 kts | 34° |
| 2026-04-28 19:32 | -21.80130 | -45.40684 | 35018 ft | 466 kts | 34° |
| 2026-04-28 19:33 | -21.75054 | -45.36331 | 35019 ft | 466 kts | 34° |
| 2026-04-28 19:33 | -21.69974 | -45.31980 | 35017 ft | 466 kts | 34° |
| 2026-04-28 19:34 | -21.64897 | -45.27636 | 35020 ft | 466 kts | 34° |
| 2026-04-28 19:34 | -21.59813 | -45.23289 | 35022 ft | 466 kts | 34° |
| 2026-04-28 19:35 | -21.54734 | -45.18950 | 35016 ft | 466 kts | 34° |
| 2026-04-28 19:35 | -21.49695 | -45.14651 | 35021 ft | 465 kts | 34° |
| 2026-04-28 19:36 | -21.44623 | -45.10325 | 35016 ft | 465 kts | 34° |
| 2026-04-28 19:36 | -21.39547 | -45.06001 | 35019 ft | 465 kts | 34° |
| 2026-04-28 19:37 | -21.35331 | -45.02413 | 35022 ft | 465 kts | 34° |
| 2026-04-28 19:37 | -21.29430 | -44.97394 | 35019 ft | 465 kts | 34° |
| 2026-04-28 19:38 | -21.24362 | -44.93086 | 35016 ft | 465 kts | 34° |